createdAt,value
2019-03-22T00:02:18.306Z,9.41
2019-03-22T00:04:49.140Z,9.38
2019-03-22T00:07:19.838Z,9.39
2019-03-22T00:09:50.583Z,9.44
2019-03-22T00:12:21.290Z,9.41
2019-03-22T00:14:52.051Z,9.34
2019-03-22T00:17:22.901Z,9.36
2019-03-22T00:19:53.731Z,9.37
2019-03-22T00:22:24.604Z,9.40
2019-03-22T00:24:55.303Z,9.51
2019-03-22T00:27:26.010Z,9.18
2019-03-22T00:29:56.747Z,9.20
2019-03-22T00:32:27.618Z,9.32
2019-03-22T00:34:58.561Z,9.35
2019-03-22T00:37:29.387Z,9.37
2019-03-22T00:40:00.406Z,9.35
2019-03-22T00:42:31.263Z,9.36
2019-03-22T00:45:02.315Z,9.56
2019-03-22T00:47:33.165Z,9.42
2019-03-22T00:50:06.333Z,9.19
2019-03-22T00:52:37.096Z,9.22
2019-03-22T00:55:07.952Z,9.12
2019-03-22T00:57:38.741Z,8.99
2019-03-22T01:00:12.426Z,9.16
2019-03-22T01:02:43.027Z,9.16
2019-03-22T01:05:14.118Z,9.00
2019-03-22T01:07:44.958Z,9.16
2019-03-22T01:10:15.797Z,9.14
2019-03-22T01:12:46.735Z,9.20
2019-03-22T01:15:17.572Z,9.32
2019-03-22T01:17:48.505Z,9.36
2019-03-22T01:20:19.476Z,9.41
2019-03-22T01:22:50.601Z,9.54
2019-03-22T01:25:21.909Z,9.44
2019-03-22T01:27:52.757Z,9.54
2019-03-22T01:30:23.504Z,9.50
2019-03-22T01:32:54.246Z,9.51
2019-03-22T01:35:25.128Z,9.56
2019-03-22T01:37:55.890Z,9.62
2019-03-22T01:40:26.738Z,9.62
2019-03-22T01:42:57.596Z,9.66
2019-03-22T01:45:28.435Z,9.65
2019-03-22T01:47:59.161Z,9.64
2019-03-22T01:50:29.904Z,9.61
2019-03-22T01:53:00.715Z,9.66
2019-03-22T01:55:31.765Z,9.72
2019-03-22T01:58:02.595Z,9.68
2019-03-22T02:00:33.447Z,9.66
2019-03-22T02:03:04.264Z,9.72
2019-03-22T02:05:35.120Z,9.64
2019-03-22T02:08:05.980Z,9.69
2019-03-22T02:10:36.790Z,9.76
2019-03-22T02:13:07.522Z,9.75
2019-03-22T02:15:38.350Z,9.97
2019-03-22T02:18:09.193Z,9.86
2019-03-22T02:20:40.019Z,9.80
2019-03-22T02:23:10.858Z,9.91
2019-03-22T02:25:41.593Z,9.82
2019-03-22T02:28:12.439Z,9.86
2019-03-22T02:30:43.219Z,9.75
2019-03-22T02:33:14.008Z,9.94
2019-03-22T02:35:44.659Z,9.71
2019-03-22T02:38:15.469Z,9.68
2019-03-22T02:40:46.202Z,9.64
2019-03-22T02:43:17.051Z,9.70
2019-03-22T02:45:47.911Z,9.65
2019-03-22T02:48:18.443Z,9.71
2019-03-22T02:50:48.899Z,9.66
2019-03-22T02:53:19.802Z,9.72
2019-03-22T02:55:50.704Z,9.86
2019-03-22T02:58:21.598Z,9.80
2019-03-22T03:00:52.484Z,9.74
2019-03-22T03:03:23.247Z,9.71
2019-03-22T03:05:53.813Z,9.70
2019-03-22T03:08:24.710Z,9.73
2019-03-22T03:10:55.550Z,9.90
2019-03-22T03:13:26.277Z,9.74
2019-03-22T03:15:57.605Z,9.71
2019-03-22T03:18:28.091Z,9.78
2019-03-22T03:21:00.431Z,9.72
2019-03-22T03:23:31.249Z,9.72
2019-03-22T03:26:01.997Z,9.76
2019-03-22T03:28:37.189Z,9.74
2019-03-22T03:31:05.312Z,9.82
2019-03-22T03:33:36.160Z,9.78
2019-03-22T03:36:06.966Z,9.84
2019-03-22T03:38:37.617Z,9.81
2019-03-22T03:41:08.131Z,9.79
2019-03-22T03:43:38.973Z,9.76
2019-03-22T03:46:09.746Z,9.91
2019-03-22T03:48:40.253Z,9.90
2019-03-22T03:51:11.092Z,9.85
2019-03-22T03:53:42.019Z,9.84
2019-03-22T03:56:12.859Z,9.88
2019-03-22T03:58:52.225Z,9.87
2019-03-22T04:01:16.464Z,9.83
2019-03-22T04:03:47.197Z,9.78
2019-03-22T04:06:18.054Z,9.86
2019-03-22T04:08:48.783Z,10.10
2019-03-22T04:11:19.602Z,9.90
2019-03-22T04:13:50.404Z,9.97
2019-03-22T04:16:20.870Z,9.79
2019-03-22T04:18:51.823Z,9.71
2019-03-22T04:21:23.069Z,9.78
2019-03-22T04:23:53.946Z,9.76
2019-03-22T04:26:24.830Z,9.76
2019-03-22T04:29:06.823Z,9.82
2019-03-22T04:31:27.716Z,9.74
2019-03-22T04:33:58.120Z,9.65
2019-03-22T04:36:28.938Z,9.71
2019-03-22T04:38:59.743Z,9.70
2019-03-22T04:41:30.477Z,9.74
2019-03-22T04:44:01.148Z,9.68
2019-03-22T04:46:32.345Z,9.76
2019-03-22T04:49:03.191Z,9.72
2019-03-22T04:51:34.209Z,9.79
2019-03-22T04:54:05.872Z,9.73
2019-03-22T04:56:38.797Z,9.88
2019-03-22T04:59:19.037Z,9.92
2019-03-22T05:01:47.394Z,9.94
2019-03-22T05:04:19.151Z,9.94
2019-03-22T05:06:52.438Z,10.01
2019-03-22T05:09:26.562Z,9.92
2019-03-22T05:11:59.359Z,9.87
2019-03-22T05:14:32.431Z,9.90
2019-03-22T05:17:04.599Z,9.82
2019-03-22T05:19:38.533Z,9.70
2019-03-22T05:22:11.916Z,9.68
2019-03-22T05:24:45.197Z,9.78
2019-03-22T05:27:17.566Z,9.79
2019-03-22T05:29:48.714Z,9.74
2019-03-22T05:32:19.496Z,9.87
2019-03-22T05:34:50.384Z,9.78
2019-03-22T05:37:21.241Z,9.71
2019-03-22T05:39:52.004Z,9.89
2019-03-22T05:42:22.787Z,9.84
2019-03-22T05:44:55.967Z,9.82
2019-03-22T05:47:26.409Z,9.90
2019-03-22T05:49:57.271Z,9.82
2019-03-22T05:52:27.995Z,9.88
2019-03-22T05:55:01.652Z,9.88
2019-03-22T05:57:32.535Z,9.96
2019-03-22T06:00:05.742Z,9.97
2019-03-22T06:02:36.577Z,9.92
2019-03-22T06:05:08.011Z,9.84
2019-03-22T06:07:38.761Z,9.95
2019-03-22T06:10:09.770Z,9.89
2019-03-22T06:12:40.956Z,10.04
2019-03-22T06:15:14.794Z,9.92
2019-03-22T06:17:51.562Z,10.25
2019-03-22T06:20:18.224Z,10.36
2019-03-22T06:22:51.030Z,10.00
2019-03-22T06:25:23.003Z,9.91
2019-03-22T06:27:53.414Z,9.96
2019-03-22T06:30:25.290Z,10.04
2019-03-22T06:32:56.141Z,9.94
2019-03-22T06:35:27.243Z,9.88
2019-03-22T06:37:59.303Z,9.92
2019-03-22T06:40:36.482Z,9.94
2019-03-22T06:43:08.457Z,10.02
2019-03-22T06:45:39.294Z,9.98
2019-03-22T06:48:10.383Z,10.02
2019-03-22T06:50:42.751Z,10.05
2019-03-22T06:53:13.839Z,10.02
2019-03-22T06:55:44.738Z,10.07
2019-03-22T06:58:15.551Z,10.01
2019-03-22T07:00:46.279Z,9.96
2019-03-22T07:03:16.739Z,10.14
2019-03-22T07:05:50.056Z,10.04
2019-03-22T07:08:20.612Z,10.07
2019-03-22T07:10:51.362Z,9.96
2019-03-22T07:13:22.292Z,10.09
2019-03-22T07:15:53.082Z,10.02
2019-03-22T07:18:23.874Z,9.94
2019-03-22T07:20:54.731Z,10.14
2019-03-22T07:23:25.552Z,10.11
2019-03-22T07:25:56.303Z,10.07
2019-03-22T07:28:27.141Z,10.13
2019-03-22T07:30:57.994Z,10.28
2019-03-22T07:33:28.910Z,10.34
2019-03-22T07:35:59.580Z,10.30
2019-03-22T07:38:30.280Z,10.30
2019-03-22T07:41:01.110Z,10.34
2019-03-22T07:43:32.025Z,10.40
2019-03-22T07:46:02.875Z,10.27
2019-03-22T07:48:33.616Z,10.38
2019-03-22T07:51:04.448Z,10.42
2019-03-22T07:53:35.209Z,10.50
2019-03-22T07:56:06.188Z,10.58
2019-03-22T07:58:37.090Z,10.54
2019-03-22T08:01:07.467Z,10.51
2019-03-22T08:03:40.996Z,10.54
2019-03-22T08:06:11.815Z,10.46
2019-03-22T08:08:42.669Z,10.45
2019-03-22T08:11:13.392Z,10.48
2019-03-22T08:13:43.912Z,10.42
2019-03-22T08:16:16.776Z,10.50
2019-03-22T08:18:47.696Z,10.58
2019-03-22T08:21:18.260Z,10.52
2019-03-22T08:23:49.164Z,10.60
2019-03-22T08:26:20.064Z,10.67
2019-03-22T08:28:51.034Z,10.63
2019-03-22T08:31:21.558Z,10.42
2019-03-22T08:33:52.430Z,10.66
2019-03-22T08:36:23.249Z,10.67
2019-03-22T08:38:54.159Z,10.66
2019-03-22T08:41:25.059Z,10.68
2019-03-22T08:43:55.572Z,10.60
2019-03-22T08:46:26.430Z,10.88
2019-03-22T08:48:57.321Z,10.84
2019-03-22T08:51:29.867Z,10.59
2019-03-22T08:54:00.474Z,10.73
2019-03-22T08:56:31.349Z,10.82
2019-03-22T08:59:02.459Z,10.86
2019-03-22T09:01:33.320Z,10.86
2019-03-22T09:04:04.137Z,10.90
2019-03-22T09:06:35.082Z,10.90
2019-03-22T09:09:07.808Z,11.04
2019-03-22T09:11:38.769Z,11.08
2019-03-22T09:14:09.705Z,11.20
2019-03-22T09:16:40.611Z,11.11
2019-03-22T09:19:11.131Z,11.15
2019-03-22T09:21:42.069Z,11.10
2019-03-22T09:24:13.027Z,10.97
2019-03-22T09:26:47.952Z,11.04
2019-03-22T09:29:16.211Z,11.09
2019-03-22T09:31:47.112Z,11.10
2019-03-22T09:34:18.058Z,11.16
2019-03-22T09:36:49.181Z,11.38
2019-03-22T09:39:20.076Z,11.22
2019-03-22T09:41:50.584Z,11.40
2019-03-22T09:44:21.414Z,11.50
2019-03-22T09:46:51.934Z,11.50
2019-03-22T09:49:23.197Z,11.50
2019-03-22T09:51:55.311Z,11.45
2019-03-22T09:54:26.432Z,11.48
2019-03-22T09:56:57.640Z,11.53
2019-03-22T09:59:28.526Z,11.63
2019-03-22T10:01:59.365Z,11.67
2019-03-22T10:04:30.156Z,11.66
2019-03-22T10:07:00.910Z,11.67
2019-03-22T10:09:31.812Z,11.67
2019-03-22T10:12:02.495Z,11.52
2019-03-22T10:14:33.318Z,11.58
2019-03-22T10:17:04.171Z,11.52
2019-03-22T10:19:35.108Z,11.58
2019-03-22T10:22:05.512Z,11.60
2019-03-22T10:24:36.539Z,11.69
2019-03-22T10:27:07.411Z,11.48
2019-03-22T10:29:38.226Z,11.34
2019-03-22T10:32:08.818Z,11.58
2019-03-22T10:34:39.963Z,11.51
2019-03-22T10:37:11.033Z,11.64
2019-03-22T10:39:41.806Z,11.60
2019-03-22T10:42:12.621Z,11.57
2019-03-22T10:44:43.521Z,11.63
2019-03-22T10:47:14.465Z,11.66
2019-03-22T10:49:45.513Z,11.53
2019-03-22T10:52:16.418Z,11.52
2019-03-22T10:54:46.964Z,11.68
2019-03-22T10:57:17.781Z,11.71
2019-03-22T10:59:48.678Z,11.42
2019-03-22T11:02:19.521Z,11.50
2019-03-22T11:04:50.235Z,11.41
2019-03-22T11:07:21.082Z,11.48
2019-03-22T11:09:51.822Z,11.56
2019-03-22T11:12:22.660Z,11.45
2019-03-22T11:14:53.498Z,11.56
2019-03-22T11:17:24.316Z,11.64
2019-03-22T11:19:54.775Z,11.70
2019-03-22T11:22:25.199Z,11.78
2019-03-22T11:24:56.016Z,11.91
2019-03-22T11:27:26.745Z,11.80
2019-03-22T11:30:00.391Z,11.82
2019-03-22T11:32:33.315Z,11.80
2019-03-22T11:35:04.893Z,11.68
2019-03-22T11:37:35.557Z,11.79
2019-03-22T11:40:09.227Z,11.85
2019-03-22T11:42:39.952Z,11.85
2019-03-22T11:45:16.270Z,11.97
2019-03-22T11:47:47.173Z,11.83
2019-03-22T11:50:18.116Z,12.02
2019-03-22T11:52:48.935Z,11.90
2019-03-22T11:55:19.777Z,11.88
2019-03-22T11:57:50.516Z,11.99
2019-03-22T12:00:27.831Z,11.93
2019-03-22T12:02:58.243Z,11.86
2019-03-22T12:05:28.752Z,12.02
2019-03-22T12:07:59.615Z,12.01
2019-03-22T12:10:30.424Z,11.94
2019-03-22T12:13:01.406Z,11.88
2019-03-22T12:15:32.306Z,11.89
2019-03-22T12:18:03.160Z,12.04
2019-03-22T12:20:33.938Z,12.20
2019-03-22T12:23:04.649Z,12.08
2019-03-22T12:25:35.747Z,12.30
2019-03-22T12:28:06.600Z,12.08
2019-03-22T12:30:37.434Z,12.28
2019-03-22T12:33:08.194Z,12.24
2019-03-22T12:35:38.629Z,12.20
2019-03-22T12:38:11.739Z,12.08
2019-03-22T12:40:42.548Z,12.24
2019-03-22T12:43:13.462Z,12.22
2019-03-22T12:45:44.190Z,12.41
2019-03-22T12:48:14.971Z,12.18
2019-03-22T12:50:45.878Z,12.50
2019-03-22T12:53:16.380Z,12.23
2019-03-22T12:55:48.750Z,12.32
2019-03-22T12:58:19.755Z,12.34
2019-03-22T13:00:50.235Z,12.56
2019-03-22T13:03:21.010Z,12.64
2019-03-22T13:05:53.041Z,12.72
2019-03-22T13:08:23.959Z,12.74
2019-03-22T13:10:54.703Z,12.66
2019-03-22T13:13:25.413Z,12.72
2019-03-22T13:15:55.916Z,12.56
2019-03-22T13:18:26.710Z,12.62
2019-03-22T13:20:57.543Z,12.78
2019-03-22T13:23:28.313Z,12.58
2019-03-22T13:25:59.099Z,12.73
2019-03-22T13:28:31.878Z,12.90
2019-03-22T13:31:02.729Z,13.04
2019-03-22T13:33:33.574Z,12.98
2019-03-22T13:36:04.711Z,13.11
2019-03-22T13:38:37.048Z,13.36
2019-03-22T13:41:07.709Z,13.41
2019-03-22T13:43:41.701Z,13.38
2019-03-22T13:46:12.604Z,13.33
2019-03-22T13:48:43.299Z,13.43
2019-03-22T13:51:14.655Z,13.34
2019-03-22T13:53:45.545Z,13.27
2019-03-22T13:56:16.325Z,13.00
2019-03-22T13:58:47.159Z,13.24
2019-03-22T14:01:18.212Z,13.34
2019-03-22T14:03:48.787Z,13.17
2019-03-22T14:06:20.330Z,13.08
2019-03-22T14:08:51.139Z,12.84
2019-03-22T14:11:21.989Z,12.72
2019-03-22T14:13:52.791Z,12.54
2019-03-22T14:16:23.620Z,12.66
2019-03-22T14:18:54.377Z,12.85
2019-03-22T14:21:25.214Z,12.76
2019-03-22T14:23:56.073Z,12.51
2019-03-22T14:26:26.874Z,12.66
2019-03-22T14:28:57.674Z,12.60
2019-03-22T14:31:28.330Z,12.54
2019-03-22T14:33:59.072Z,12.60
2019-03-22T14:36:31.590Z,12.87
2019-03-22T14:39:02.501Z,12.58
2019-03-22T14:41:33.753Z,12.75
2019-03-22T14:44:06.026Z,12.72
2019-03-22T14:46:36.950Z,12.84
2019-03-22T14:49:07.951Z,12.92
2019-03-22T14:51:38.433Z,12.92
2019-03-22T14:54:09.576Z,12.84
2019-03-22T14:56:40.447Z,13.09
2019-03-22T14:59:11.378Z,12.85
2019-03-22T15:01:42.316Z,12.86
2019-03-22T15:04:13.144Z,12.88
2019-03-22T15:06:46.599Z,12.84
2019-03-22T15:09:21.843Z,12.84
2019-03-22T15:11:52.640Z,12.91
2019-03-22T15:14:31.215Z,12.88
2019-03-22T15:17:06.583Z,12.74
2019-03-22T15:19:50.907Z,12.62
2019-03-22T15:22:23.399Z,12.42
2019-03-22T15:25:02.253Z,12.42
2019-03-22T15:27:34.689Z,12.40
2019-03-22T15:30:21.930Z,12.63
2019-03-22T15:32:54.404Z,12.36
2019-03-22T15:35:35.762Z,12.41
2019-03-22T15:38:08.308Z,12.38
2019-03-22T15:40:40.396Z,12.54
2019-03-22T15:43:13.857Z,12.56
2019-03-22T15:45:44.679Z,12.27
2019-03-22T15:48:15.180Z,12.01
2019-03-22T15:50:46.075Z,12.28
2019-03-22T15:53:16.836Z,12.05
2019-03-22T15:55:47.701Z,12.22
2019-03-22T15:58:18.731Z,12.15
2019-03-22T16:00:51.206Z,12.14
2019-03-22T16:03:22.000Z,12.14
2019-03-22T16:05:52.872Z,12.12
2019-03-22T16:08:25.365Z,12.18
2019-03-22T16:10:56.289Z,12.19
2019-03-22T16:13:26.765Z,11.95
2019-03-22T16:15:57.276Z,11.96
2019-03-22T16:18:27.957Z,11.79
2019-03-22T16:21:00.182Z,11.94
2019-03-22T16:23:31.210Z,11.87
2019-03-22T16:26:02.036Z,11.66
2019-03-22T16:28:37.110Z,11.76
2019-03-22T16:31:08.108Z,11.67
2019-03-22T16:33:41.990Z,11.54
2019-03-22T16:36:12.856Z,11.56
2019-03-22T16:38:44.110Z,11.49
2019-03-22T16:41:14.783Z,11.44
2019-03-22T16:43:46.104Z,11.40
2019-03-22T16:46:18.550Z,11.59
2019-03-22T16:48:49.482Z,11.45
2019-03-22T16:51:20.237Z,11.45
2019-03-22T16:53:51.173Z,11.47
2019-03-22T16:56:22.206Z,11.28
2019-03-22T16:58:52.753Z,11.34
2019-03-22T17:01:23.682Z,11.14
2019-03-22T17:04:03.927Z,11.14
2019-03-22T17:06:27.197Z,10.96
2019-03-22T17:09:00.275Z,10.96
2019-03-22T17:11:30.639Z,11.01
2019-03-22T17:14:01.246Z,10.96
2019-03-22T17:16:32.223Z,10.95
2019-03-22T17:19:02.784Z,10.90
2019-03-22T17:21:33.634Z,10.97
2019-03-22T17:24:04.099Z,10.96
2019-03-22T17:26:35.010Z,10.92
2019-03-22T17:29:05.945Z,10.78
2019-03-22T17:31:39.680Z,10.86
2019-03-22T17:34:14.271Z,10.72
2019-03-22T17:36:46.956Z,10.77
2019-03-22T17:39:17.995Z,10.73
2019-03-22T17:41:48.743Z,10.67
2019-03-22T17:44:22.729Z,10.66
2019-03-22T17:46:53.496Z,10.70
2019-03-22T17:49:24.351Z,10.64
2019-03-22T17:51:55.143Z,10.72
2019-03-22T17:54:25.532Z,10.60
2019-03-22T17:56:58.340Z,10.61
2019-03-22T17:59:29.100Z,10.62
2019-03-22T18:02:00.134Z,10.58
2019-03-22T18:04:30.644Z,10.66
2019-03-22T18:07:01.555Z,10.61
2019-03-22T18:09:35.114Z,10.62
2019-03-22T18:12:06.140Z,10.53
2019-03-22T18:14:37.074Z,10.50
2019-03-22T18:17:08.099Z,10.54
2019-03-22T18:19:38.990Z,10.51
2019-03-22T18:22:10.008Z,10.52
2019-03-22T18:24:48.449Z,10.55
2019-03-22T18:27:20.791Z,10.45
2019-03-22T18:29:55.974Z,10.48
2019-03-22T18:32:28.164Z,10.44
2019-03-22T18:35:02.424Z,10.54
2019-03-22T18:37:43.634Z,10.52
2019-03-22T18:40:15.401Z,10.48
2019-03-22T18:42:46.643Z,10.52
2019-03-22T18:45:18.895Z,10.45
2019-03-22T18:47:49.861Z,10.37
2019-03-22T18:50:20.737Z,10.45
2019-03-22T18:52:59.355Z,10.32
2019-03-22T18:55:31.678Z,10.38
2019-03-22T18:58:02.480Z,10.42
2019-03-22T19:00:34.086Z,10.36
2019-03-22T19:03:11.774Z,10.38
2019-03-22T19:05:43.956Z,10.41
2019-03-22T19:08:15.578Z,10.28
2019-03-22T19:10:46.483Z,10.28
2019-03-22T19:13:17.364Z,10.28
2019-03-22T19:15:48.448Z,10.27
2019-03-22T19:18:19.404Z,10.19
2019-03-22T19:20:50.645Z,10.20
2019-03-22T19:23:26.930Z,10.29
2019-03-22T19:25:58.323Z,10.12
2019-03-22T19:28:32.105Z,10.09
2019-03-22T19:31:03.118Z,10.18
2019-03-22T19:33:35.276Z,10.12
2019-03-22T19:36:10.835Z,10.08
2019-03-22T19:38:41.875Z,10.06
2019-03-22T19:41:17.942Z,9.98
2019-03-22T19:43:48.727Z,9.94
2019-03-22T19:46:19.534Z,9.99
2019-03-22T19:48:52.766Z,9.94
2019-03-22T19:51:25.170Z,9.82
2019-03-22T19:53:58.901Z,9.89
2019-03-22T19:56:29.829Z,9.86
2019-03-22T19:59:04.568Z,9.88
2019-03-22T20:01:38.472Z,9.78
2019-03-22T20:04:09.945Z,9.70
2019-03-22T20:06:40.992Z,9.80
2019-03-22T20:09:12.332Z,9.67
2019-03-22T20:11:43.247Z,9.74
2019-03-22T20:14:14.183Z,9.78
2019-03-22T20:16:45.040Z,9.67
2019-03-22T20:19:18.868Z,9.72
2019-03-22T20:21:51.175Z,9.74
2019-03-22T20:24:22.029Z,9.66
2019-03-22T20:26:59.541Z,9.64
2019-03-22T20:29:29.513Z,9.68
2019-03-22T20:32:00.488Z,9.76
2019-03-22T20:34:34.079Z,9.68
2019-03-22T20:37:16.485Z,9.70
2019-03-22T20:39:40.161Z,9.58
2019-03-22T20:42:10.877Z,9.70
2019-03-22T20:44:41.756Z,9.65
2019-03-22T20:47:13.946Z,9.56
2019-03-22T20:49:44.972Z,9.58
2019-03-22T20:52:15.800Z,9.54
2019-03-22T20:54:49.199Z,9.53
2019-03-22T20:57:20.007Z,9.52
2019-03-22T20:59:50.841Z,9.56
2019-03-22T21:02:21.966Z,9.48
2019-03-22T21:04:52.529Z,9.52
2019-03-22T21:07:23.880Z,9.44
2019-03-22T21:09:56.358Z,9.42
2019-03-22T21:12:27.277Z,9.45
2019-03-22T21:15:00.367Z,9.42
2019-03-22T21:17:49.735Z,9.52
2019-03-22T21:20:20.457Z,9.36
2019-03-22T21:22:50.897Z,9.33
2019-03-22T21:25:21.750Z,9.41
2019-03-22T21:27:52.747Z,9.39
2019-03-22T21:30:23.627Z,9.38
2019-03-22T21:32:54.492Z,9.24
2019-03-22T21:35:36.681Z,9.25
2019-03-22T21:38:10.191Z,9.16
2019-03-22T21:40:31.990Z,9.22
2019-03-22T21:43:04.563Z,9.14
2019-03-22T21:45:35.515Z,9.25
2019-03-22T21:48:06.038Z,9.16
2019-03-22T21:50:36.876Z,9.12
2019-03-22T21:53:07.739Z,9.11
2019-03-22T21:55:38.290Z,9.02
2019-03-22T21:58:09.156Z,9.16
2019-03-22T22:00:40.119Z,9.08
2019-03-22T22:03:11.004Z,9.16
2019-03-22T22:05:47.818Z,9.13
2019-03-22T22:08:14.554Z,9.02
2019-03-22T22:10:45.318Z,9.08
2019-03-22T22:13:16.227Z,9.02
2019-03-22T22:15:47.084Z,9.00
2019-03-22T22:18:17.979Z,9.11
2019-03-22T22:20:48.867Z,8.98
2019-03-22T22:23:19.820Z,8.98
2019-03-22T22:25:50.635Z,8.96
2019-03-22T22:28:21.477Z,9.02
2019-03-22T22:30:52.452Z,8.91
2019-03-22T22:33:23.280Z,8.93
2019-03-22T22:35:58.699Z,8.89
2019-03-22T22:38:27.045Z,8.92
2019-03-22T22:40:58.020Z,8.85
2019-03-22T22:43:29.064Z,8.88
2019-03-22T22:46:00.056Z,8.79
2019-03-22T22:48:30.628Z,8.82
2019-03-22T22:51:01.524Z,8.77
2019-03-22T22:53:32.398Z,8.82
2019-03-22T22:56:03.406Z,8.74
2019-03-22T22:58:34.202Z,8.78
2019-03-22T23:01:05.103Z,8.80
2019-03-22T23:03:36.064Z,8.70
2019-03-22T23:06:09.656Z,8.73
2019-03-22T23:08:39.471Z,8.82
2019-03-22T23:11:10.289Z,8.68
2019-03-22T23:13:41.043Z,8.63
2019-03-22T23:16:11.861Z,8.70
2019-03-22T23:18:42.710Z,8.78
2019-03-22T23:21:13.544Z,8.69
2019-03-22T23:23:44.283Z,8.66
2019-03-22T23:26:14.804Z,8.62
2019-03-22T23:28:45.622Z,8.60
2019-03-22T23:31:17.845Z,8.70
2019-03-22T23:33:48.668Z,8.56
2019-03-22T23:36:20.676Z,8.58
2019-03-22T23:38:51.756Z,8.52
2019-03-22T23:41:22.471Z,8.52
2019-03-22T23:43:53.226Z,8.47
2019-03-22T23:46:24.516Z,8.52
2019-03-22T23:48:55.319Z,8.51
2019-03-22T23:51:26.337Z,8.47
2019-03-22T23:54:00.303Z,8.51
2019-03-22T23:56:30.757Z,8.50
2019-03-22T23:59:01.520Z,8.56
